sensor_id;sensor_type;location;lat;lon;timestamp;temperature;humidity
4183;DHT22;2105;52.300;9.182;2024-03-29T00:00:40;9.10;99.90
4183;DHT22;2105;52.300;9.182;2024-03-29T00:03:06;9.10;99.90
4183;DHT22;2105;52.300;9.182;2024-03-29T00:05:32;9.10;99.90
4183;DHT22;2105;52.300;9.182;2024-03-29T00:07:59;9.10;99.90
4183;DHT22;2105;52.300;9.182;2024-03-29T00:10:24;9.10;99.90
4183;DHT22;2105;52.300;9.182;2024-03-29T00:12:50;9.10;99.90
4183;DHT22;2105;52.300;9.182;2024-03-29T00:15:16;9.10;99.90
4183;DHT22;2105;52.300;9.182;2024-03-29T00:17:43;9.10;99.90
4183;DHT22;2105;52.300;9.182;2024-03-29T00:20:10;9.10;99.90
4183;DHT22;2105;52.300;9.182;2024-03-29T00:22:36;9.00;99.90
4183;DHT22;2105;52.300;9.182;2024-03-29T00:25:08;9.10;99.90
4183;DHT22;2105;52.300;9.182;2024-03-29T00:27:34;9.10;99.90
4183;DHT22;2105;52.300;9.182;2024-03-29T00:30:00;9.00;99.90
4183;DHT22;2105;52.300;9.182;2024-03-29T00:32:25;9.00;99.90
4183;DHT22;2105;52.300;9.182;2024-03-29T00:34:53;9.00;99.90
4183;DHT22;2105;52.300;9.182;2024-03-29T00:37:18;9.00;99.90
4183;DHT22;2105;52.300;9.182;2024-03-29T00:39:45;9.00;99.90
4183;DHT22;2105;52.300;9.182;2024-03-29T00:42:11;8.90;99.90
4183;DHT22;2105;52.300;9.182;2024-03-29T00:44:37;8.90;99.90
4183;DHT22;2105;52.300;9.182;2024-03-29T00:47:03;8.90;99.90
4183;DHT22;2105;52.300;9.182;2024-03-29T00:49:29;8.90;99.90
4183;DHT22;2105;52.300;9.182;2024-03-29T00:51:56;8.90;99.90
4183;DHT22;2105;52.300;9.182;2024-03-29T00:54:22;8.90;99.90
4183;DHT22;2105;52.300;9.182;2024-03-29T00:56:48;8.90;99.90
4183;DHT22;2105;52.300;9.182;2024-03-29T00:59:14;9.00;99.90
4183;DHT22;2105;52.300;9.182;2024-03-29T01:01:40;8.90;99.90
4183;DHT22;2105;52.300;9.182;2024-03-29T01:04:06;8.90;99.90
4183;DHT22;2105;52.300;9.182;2024-03-29T01:06:31;8.90;99.90
4183;DHT22;2105;52.300;9.182;2024-03-29T01:08:59;8.80;99.90
4183;DHT22;2105;52.300;9.182;2024-03-29T01:11:25;8.90;99.90
4183;DHT22;2105;52.300;9.182;2024-03-29T01:13:51;8.90;99.90
4183;DHT22;2105;52.300;9.182;2024-03-29T01:16:17;8.90;99.90
4183;DHT22;2105;52.300;9.182;2024-03-29T01:18:43;8.90;99.90
4183;DHT22;2105;52.300;9.182;2024-03-29T01:21:08;8.80;99.90
4183;DHT22;2105;52.300;9.182;2024-03-29T01:23:34;8.80;99.90
4183;DHT22;2105;52.300;9.182;2024-03-29T01:26:01;8.90;99.90
4183;DHT22;2105;52.300;9.182;2024-03-29T01:28:27;8.90;99.90
4183;DHT22;2105;52.300;9.182;2024-03-29T01:30:53;8.80;99.90
4183;DHT22;2105;52.300;9.182;2024-03-29T01:33:20;8.80;99.90
4183;DHT22;2105;52.300;9.182;2024-03-29T01:35:45;8.80;99.90
4183;DHT22;2105;52.300;9.182;2024-03-29T01:38:11;8.80;99.90
4183;DHT22;2105;52.300;9.182;2024-03-29T01:40:37;8.70;99.90
4183;DHT22;2105;52.300;9.182;2024-03-29T01:43:04;8.70;99.90
4183;DHT22;2105;52.300;9.182;2024-03-29T01:45:31;8.70;99.90
4183;DHT22;2105;52.300;9.182;2024-03-29T01:47:58;8.80;99.90
4183;DHT22;2105;52.300;9.182;2024-03-29T01:50:25;8.80;99.90
4183;DHT22;2105;52.300;9.182;2024-03-29T01:52:52;8.80;99.90
4183;DHT22;2105;52.300;9.182;2024-03-29T01:55:19;8.80;99.90
4183;DHT22;2105;52.300;9.182;2024-03-29T01:57:46;8.80;99.90
4183;DHT22;2105;52.300;9.182;2024-03-29T02:00:14;8.90;99.90
4183;DHT22;2105;52.300;9.182;2024-03-29T02:02:41;8.90;99.90
4183;DHT22;2105;52.300;9.182;2024-03-29T02:05:08;8.90;99.90
4183;DHT22;2105;52.300;9.182;2024-03-29T02:07:35;8.90;99.90
4183;DHT22;2105;52.300;9.182;2024-03-29T02:10:03;8.90;99.90
4183;DHT22;2105;52.300;9.182;2024-03-29T02:12:31;8.80;99.90
4183;DHT22;2105;52.300;9.182;2024-03-29T02:14:58;8.80;99.90
4183;DHT22;2105;52.300;9.182;2024-03-29T02:17:26;8.80;99.90
4183;DHT22;2105;52.300;9.182;2024-03-29T02:19:53;8.80;99.90
4183;DHT22;2105;52.300;9.182;2024-03-29T02:22:22;8.70;99.90
4183;DHT22;2105;52.300;9.182;2024-03-29T02:24:52;8.70;99.90
4183;DHT22;2105;52.300;9.182;2024-03-29T02:27:20;8.60;99.90
4183;DHT22;2105;52.300;9.182;2024-03-29T02:29:48;8.60;99.90
4183;DHT22;2105;52.300;9.182;2024-03-29T02:32:14;8.40;99.90
4183;DHT22;2105;52.300;9.182;2024-03-29T02:34:41;8.30;99.90
4183;DHT22;2105;52.300;9.182;2024-03-29T02:37:07;8.20;99.90
4183;DHT22;2105;52.300;9.182;2024-03-29T02:39:34;8.00;99.90
4183;DHT22;2105;52.300;9.182;2024-03-29T02:42:02;7.90;99.90
4183;DHT22;2105;52.300;9.182;2024-03-29T02:44:29;7.80;99.90
4183;DHT22;2105;52.300;9.182;2024-03-29T02:46:56;7.80;99.90
4183;DHT22;2105;52.300;9.182;2024-03-29T02:49:21;7.70;99.90
4183;DHT22;2105;52.300;9.182;2024-03-29T02:51:48;7.70;99.90
4183;DHT22;2105;52.300;9.182;2024-03-29T02:54:16;7.60;99.90
4183;DHT22;2105;52.300;9.182;2024-03-29T02:56:43;7.60;99.90
4183;DHT22;2105;52.300;9.182;2024-03-29T02:59:10;7.60;99.90
4183;DHT22;2105;52.300;9.182;2024-03-29T03:01:36;7.60;99.90
4183;DHT22;2105;52.300;9.182;2024-03-29T03:04:02;7.50;1.00
4183;DHT22;2105;52.300;9.182;2024-03-29T03:06:29;7.60;1.00
4183;DHT22;2105;52.300;9.182;2024-03-29T03:08:55;7.60;1.00
4183;DHT22;2105;52.300;9.182;2024-03-29T03:15:03;7.60;1.00
4183;DHT22;2105;52.300;9.182;2024-03-29T03:17:31;7.70;1.00
4183;DHT22;2105;52.300;9.182;2024-03-29T03:19:57;7.70;1.00
4183;DHT22;2105;52.300;9.182;2024-03-29T03:22:24;7.70;1.00
4183;DHT22;2105;52.300;9.182;2024-03-29T03:24:51;7.70;1.00
4183;DHT22;2105;52.300;9.182;2024-03-29T03:27:16;7.70;1.00
4183;DHT22;2105;52.300;9.182;2024-03-29T03:29:43;7.70;1.00
4183;DHT22;2105;52.300;9.182;2024-03-29T03:32:10;7.70;1.00
4183;DHT22;2105;52.300;9.182;2024-03-29T03:34:37;7.80;1.00
4183;DHT22;2105;52.300;9.182;2024-03-29T03:37:03;7.80;1.00
4183;DHT22;2105;52.300;9.182;2024-03-29T03:39:29;7.80;1.00
4183;DHT22;2105;52.300;9.182;2024-03-29T03:41:56;7.80;1.00
4183;DHT22;2105;52.300;9.182;2024-03-29T03:44:22;7.90;1.00
4183;DHT22;2105;52.300;9.182;2024-03-29T03:46:50;7.90;1.00
4183;DHT22;2105;52.300;9.182;2024-03-29T03:49:17;7.90;1.00
4183;DHT22;2105;52.300;9.182;2024-03-29T03:51:44;8.00;1.00
4183;DHT22;2105;52.300;9.182;2024-03-29T03:54:09;8.00;1.00
4183;DHT22;2105;52.300;9.182;2024-03-29T03:56:36;8.00;99.90
4183;DHT22;2105;52.300;9.182;2024-03-29T03:59:02;8.10;99.90
4183;DHT22;2105;52.300;9.182;2024-03-29T04:01:28;8.10;99.90
4183;DHT22;2105;52.300;9.182;2024-03-29T04:03:54;8.20;99.90
4183;DHT22;2105;52.300;9.182;2024-03-29T04:06:22;8.10;99.90
4183;DHT22;2105;52.300;9.182;2024-03-29T04:08:48;8.10;99.90
4183;DHT22;2105;52.300;9.182;2024-03-29T04:11:14;8.10;99.90
4183;DHT22;2105;52.300;9.182;2024-03-29T04:13:42;8.20;99.90
4183;DHT22;2105;52.300;9.182;2024-03-29T04:16:08;8.20;99.90
4183;DHT22;2105;52.300;9.182;2024-03-29T04:18:34;8.20;99.90
4183;DHT22;2105;52.300;9.182;2024-03-29T04:21:02;8.20;99.90
4183;DHT22;2105;52.300;9.182;2024-03-29T04:23:29;8.20;99.90
4183;DHT22;2105;52.300;9.182;2024-03-29T04:25:57;8.30;99.90
4183;DHT22;2105;52.300;9.182;2024-03-29T04:28:23;8.30;99.90
4183;DHT22;2105;52.300;9.182;2024-03-29T04:30:54;8.30;99.90
4183;DHT22;2105;52.300;9.182;2024-03-29T04:33:20;8.30;99.90
4183;DHT22;2105;52.300;9.182;2024-03-29T04:35:55;8.40;99.90
4183;DHT22;2105;52.300;9.182;2024-03-29T04:38:21;8.40;99.90
4183;DHT22;2105;52.300;9.182;2024-03-29T04:40:50;8.40;99.90
4183;DHT22;2105;52.300;9.182;2024-03-29T04:43:17;8.50;99.90
4183;DHT22;2105;52.300;9.182;2024-03-29T04:45:43;8.50;99.90
4183;DHT22;2105;52.300;9.182;2024-03-29T04:48:10;8.50;99.90
4183;DHT22;2105;52.300;9.182;2024-03-29T04:50:37;8.60;99.90
4183;DHT22;2105;52.300;9.182;2024-03-29T04:53:04;8.70;99.90
4183;DHT22;2105;52.300;9.182;2024-03-29T04:55:31;8.80;99.90
4183;DHT22;2105;52.300;9.182;2024-03-29T04:57:59;8.90;99.90
4183;DHT22;2105;52.300;9.182;2024-03-29T05:00:25;9.00;99.90
4183;DHT22;2105;52.300;9.182;2024-03-29T05:02:52;9.10;99.90
4183;DHT22;2105;52.300;9.182;2024-03-29T05:05:19;9.30;99.90
4183;DHT22;2105;52.300;9.182;2024-03-29T05:07:45;9.30;99.90
4183;DHT22;2105;52.300;9.182;2024-03-29T05:10:12;9.40;99.90
4183;DHT22;2105;52.300;9.182;2024-03-29T05:12:39;9.40;99.90
4183;DHT22;2105;52.300;9.182;2024-03-29T05:15:08;9.30;99.90
4183;DHT22;2105;52.300;9.182;2024-03-29T05:17:34;9.30;99.90
4183;DHT22;2105;52.300;9.182;2024-03-29T05:20:03;9.30;99.90
4183;DHT22;2105;52.300;9.182;2024-03-29T05:22:30;9.30;99.90
4183;DHT22;2105;52.300;9.182;2024-03-29T05:24:56;9.20;99.90
4183;DHT22;2105;52.300;9.182;2024-03-29T05:27:23;9.10;99.90
4183;DHT22;2105;52.300;9.182;2024-03-29T05:29:49;9.10;99.90
4183;DHT22;2105;52.300;9.182;2024-03-29T05:32:17;8.90;99.90
4183;DHT22;2105;52.300;9.182;2024-03-29T05:34:44;8.80;1.00
4183;DHT22;2105;52.300;9.182;2024-03-29T05:37:12;8.80;1.00
4183;DHT22;2105;52.300;9.182;2024-03-29T05:39:41;8.70;1.00
4183;DHT22;2105;52.300;9.182;2024-03-29T05:42:07;8.60;99.90
4183;DHT22;2105;52.300;9.182;2024-03-29T05:44:35;8.50;1.00
4183;DHT22;2105;52.300;9.182;2024-03-29T05:47:02;8.50;1.00
4183;DHT22;2105;52.300;9.182;2024-03-29T05:49:31;8.40;35.20
4183;DHT22;2105;52.300;9.182;2024-03-29T05:51:58;8.40;99.90
4183;DHT22;2105;52.300;9.182;2024-03-29T05:54:24;8.40;99.90
4183;DHT22;2105;52.300;9.182;2024-03-29T05:56:51;8.30;1.00
4183;DHT22;2105;52.300;9.182;2024-03-29T05:59:18;8.30;99.90
4183;DHT22;2105;52.300;9.182;2024-03-29T06:01:45;8.30;1.00
4183;DHT22;2105;52.300;9.182;2024-03-29T06:04:11;8.20;99.90
4183;DHT22;2105;52.300;9.182;2024-03-29T06:06:42;8.20;1.00
4183;DHT22;2105;52.300;9.182;2024-03-29T06:09:09;8.10;1.00
4183;DHT22;2105;52.300;9.182;2024-03-29T06:11:36;8.10;99.90
4183;DHT22;2105;52.300;9.182;2024-03-29T06:14:03;8.10;1.00
4183;DHT22;2105;52.300;9.182;2024-03-29T06:16:47;8.00;1.00
4183;DHT22;2105;52.300;9.182;2024-03-29T06:19:34;8.00;99.90
4183;DHT22;2105;52.300;9.182;2024-03-29T06:22:01;7.90;28.80
4183;DHT22;2105;52.300;9.182;2024-03-29T06:24:29;7.80;99.90
4183;DHT22;2105;52.300;9.182;2024-03-29T06:26:57;7.80;28.40
4183;DHT22;2105;52.300;9.182;2024-03-29T06:29:24;7.90;99.90
4183;DHT22;2105;52.300;9.182;2024-03-29T06:31:51;7.80;1.00
4183;DHT22;2105;52.300;9.182;2024-03-29T06:34:17;7.80;1.00
4183;DHT22;2105;52.300;9.182;2024-03-29T06:36:44;7.70;99.90
4183;DHT22;2105;52.300;9.182;2024-03-29T06:39:12;7.70;1.00
4183;DHT22;2105;52.300;9.182;2024-03-29T06:41:39;7.70;99.90
4183;DHT22;2105;52.300;9.182;2024-03-29T06:44:05;7.70;1.00
4183;DHT22;2105;52.300;9.182;2024-03-29T06:46:32;7.70;1.00
4183;DHT22;2105;52.300;9.182;2024-03-29T06:48:59;7.70;1.00
4183;DHT22;2105;52.300;9.182;2024-03-29T06:51:26;7.70;99.90
4183;DHT22;2105;52.300;9.182;2024-03-29T06:53:53;7.70;99.90
4183;DHT22;2105;52.300;9.182;2024-03-29T06:56:21;7.60;1.00
4183;DHT22;2105;52.300;9.182;2024-03-29T06:58:48;7.70;99.90
4183;DHT22;2105;52.300;9.182;2024-03-29T07:01:14;7.70;99.90
4183;DHT22;2105;52.300;9.182;2024-03-29T07:03:41;7.60;99.90
4183;DHT22;2105;52.300;9.182;2024-03-29T07:06:07;7.60;99.90
4183;DHT22;2105;52.300;9.182;2024-03-29T07:11:02;7.60;99.90
4183;DHT22;2105;52.300;9.182;2024-03-29T07:13:30;7.70;99.90
4183;DHT22;2105;52.300;9.182;2024-03-29T07:15:57;7.70;99.90
4183;DHT22;2105;52.300;9.182;2024-03-29T07:18:24;7.70;99.90
4183;DHT22;2105;52.300;9.182;2024-03-29T07:20:51;7.60;99.90
4183;DHT22;2105;52.300;9.182;2024-03-29T07:23:18;7.70;99.90
4183;DHT22;2105;52.300;9.182;2024-03-29T07:25:45;7.70;99.90
4183;DHT22;2105;52.300;9.182;2024-03-29T07:28:12;7.70;1.00
4183;DHT22;2105;52.300;9.182;2024-03-29T07:30:41;7.70;46.40
4183;DHT22;2105;52.300;9.182;2024-03-29T07:33:09;7.70;1.00
4183;DHT22;2105;52.300;9.182;2024-03-29T07:35:36;7.70;1.00
4183;DHT22;2105;52.300;9.182;2024-03-29T07:38:06;7.80;1.00
4183;DHT22;2105;52.300;9.182;2024-03-29T07:40:33;7.80;1.00
4183;DHT22;2105;52.300;9.182;2024-03-29T07:43:00;7.90;99.90
4183;DHT22;2105;52.300;9.182;2024-03-29T07:45:28;7.90;99.90
4183;DHT22;2105;52.300;9.182;2024-03-29T07:47:56;7.90;1.00
4183;DHT22;2105;52.300;9.182;2024-03-29T07:50:23;8.00;99.90
4183;DHT22;2105;52.300;9.182;2024-03-29T07:52:50;8.00;99.90
4183;DHT22;2105;52.300;9.182;2024-03-29T07:55:17;8.00;1.00
4183;DHT22;2105;52.300;9.182;2024-03-29T07:57:44;8.00;64.10
4183;DHT22;2105;52.300;9.182;2024-03-29T08:00:13;8.00;99.90
4183;DHT22;2105;52.300;9.182;2024-03-29T08:02:39;8.00;99.90
4183;DHT22;2105;52.300;9.182;2024-03-29T08:05:08;8.00;99.90
4183;DHT22;2105;52.300;9.182;2024-03-29T08:07:34;8.10;48.70
4183;DHT22;2105;52.300;9.182;2024-03-29T08:10:01;8.10;1.00
4183;DHT22;2105;52.300;9.182;2024-03-29T08:12:28;8.10;99.90
4183;DHT22;2105;52.300;9.182;2024-03-29T08:14:54;8.20;1.00
4183;DHT22;2105;52.300;9.182;2024-03-29T08:17:21;8.20;1.00
4183;DHT22;2105;52.300;9.182;2024-03-29T08:19:47;8.30;1.00
4183;DHT22;2105;52.300;9.182;2024-03-29T08:22:16;8.30;1.00
4183;DHT22;2105;52.300;9.182;2024-03-29T08:24:42;8.40;56.80
4183;DHT22;2105;52.300;9.182;2024-03-29T08:27:09;8.50;99.90
4183;DHT22;2105;52.300;9.182;2024-03-29T08:29:36;8.60;1.00
4183;DHT22;2105;52.300;9.182;2024-03-29T08:32:03;8.70;99.90
4183;DHT22;2105;52.300;9.182;2024-03-29T08:34:32;8.80;99.90
4183;DHT22;2105;52.300;9.182;2024-03-29T08:37:00;8.90;99.90
4183;DHT22;2105;52.300;9.182;2024-03-29T08:39:28;9.00;99.90
4183;DHT22;2105;52.300;9.182;2024-03-29T08:41:55;9.10;99.90
4183;DHT22;2105;52.300;9.182;2024-03-29T08:44:22;9.10;1.00
4183;DHT22;2105;52.300;9.182;2024-03-29T08:46:50;9.10;1.00
4183;DHT22;2105;52.300;9.182;2024-03-29T08:49:16;9.10;1.00
4183;DHT22;2105;52.300;9.182;2024-03-29T08:51:43;9.20;99.90
4183;DHT22;2105;52.300;9.182;2024-03-29T08:54:10;9.20;99.90
4183;DHT22;2105;52.300;9.182;2024-03-29T08:56:38;9.20;99.90
4183;DHT22;2105;52.300;9.182;2024-03-29T08:59:06;9.30;44.70
4183;DHT22;2105;52.300;9.182;2024-03-29T09:01:36;9.30;1.00
4183;DHT22;2105;52.300;9.182;2024-03-29T09:04:03;9.40;1.00
4183;DHT22;2105;52.300;9.182;2024-03-29T09:06:33;9.40;99.90
4183;DHT22;2105;52.300;9.182;2024-03-29T09:09:00;9.40;1.00
4183;DHT22;2105;52.300;9.182;2024-03-29T09:11:26;9.60;2.30
4183;DHT22;2105;52.300;9.182;2024-03-29T09:13:54;9.70;62.40
4183;DHT22;2105;52.300;9.182;2024-03-29T09:16:22;9.70;99.90
4183;DHT22;2105;52.300;9.182;2024-03-29T09:18:48;9.70;46.80
4183;DHT22;2105;52.300;9.182;2024-03-29T09:21:15;9.70;99.90
4183;DHT22;2105;52.300;9.182;2024-03-29T09:23:42;9.80;6.70
4183;DHT22;2105;52.300;9.182;2024-03-29T09:26:08;9.90;1.00
4183;DHT22;2105;52.300;9.182;2024-03-29T09:28:35;9.90;1.00
4183;DHT22;2105;52.300;9.182;2024-03-29T09:31:04;9.90;1.00
4183;DHT22;2105;52.300;9.182;2024-03-29T09:33:30;9.90;99.90
4183;DHT22;2105;52.300;9.182;2024-03-29T09:35:57;10.00;1.00
4183;DHT22;2105;52.300;9.182;2024-03-29T09:38:24;10.00;99.90
4183;DHT22;2105;52.300;9.182;2024-03-29T09:41:06;10.10;29.70
4183;DHT22;2105;52.300;9.182;2024-03-29T09:43:34;10.10;1.00
4183;DHT22;2105;52.300;9.182;2024-03-29T09:46:03;10.20;1.00
4183;DHT22;2105;52.300;9.182;2024-03-29T09:48:30;10.30;1.00
4183;DHT22;2105;52.300;9.182;2024-03-29T09:51:02;10.40;1.00
4183;DHT22;2105;52.300;9.182;2024-03-29T09:53:29;10.40;1.00
4183;DHT22;2105;52.300;9.182;2024-03-29T09:55:57;10.50;1.00
4183;DHT22;2105;52.300;9.182;2024-03-29T09:58:24;10.60;99.90
4183;DHT22;2105;52.300;9.182;2024-03-29T10:00:51;10.60;85.00
4183;DHT22;2105;52.300;9.182;2024-03-29T10:03:19;10.70;1.00
4183;DHT22;2105;52.300;9.182;2024-03-29T10:05:47;10.70;1.00
4183;DHT22;2105;52.300;9.182;2024-03-29T10:08:14;10.80;30.00
4183;DHT22;2105;52.300;9.182;2024-03-29T10:10:41;11.00;93.10
4183;DHT22;2105;52.300;9.182;2024-03-29T10:13:07;11.10;1.00
4183;DHT22;2105;52.300;9.182;2024-03-29T10:15:34;11.10;1.00
4183;DHT22;2105;52.300;9.182;2024-03-29T10:18:04;11.10;7.80
4183;DHT22;2105;52.300;9.182;2024-03-29T10:20:32;11.20;1.00
4183;DHT22;2105;52.300;9.182;2024-03-29T10:23:02;11.20;82.20
4183;DHT22;2105;52.300;9.182;2024-03-29T10:25:31;11.20;1.00
4183;DHT22;2105;52.300;9.182;2024-03-29T10:27:59;11.20;1.00
4183;DHT22;2105;52.300;9.182;2024-03-29T10:30:27;11.30;1.00
4183;DHT22;2105;52.300;9.182;2024-03-29T10:32:55;11.30;1.00
4183;DHT22;2105;52.300;9.182;2024-03-29T10:35:22;11.40;1.00
4183;DHT22;2105;52.300;9.182;2024-03-29T10:37:52;11.50;1.00
4183;DHT22;2105;52.300;9.182;2024-03-29T10:40:20;11.40;1.00
4183;DHT22;2105;52.300;9.182;2024-03-29T10:42:48;11.30;1.00
4183;DHT22;2105;52.300;9.182;2024-03-29T10:45:15;11.30;1.00
4183;DHT22;2105;52.300;9.182;2024-03-29T10:47:43;11.30;1.00
4183;DHT22;2105;52.300;9.182;2024-03-29T10:50:12;11.30;1.00
4183;DHT22;2105;52.300;9.182;2024-03-29T10:52:39;11.40;1.00
4183;DHT22;2105;52.300;9.182;2024-03-29T10:55:09;11.50;99.90
4183;DHT22;2105;52.300;9.182;2024-03-29T10:57:40;11.50;1.00
4183;DHT22;2105;52.300;9.182;2024-03-29T11:00:08;11.40;1.00
4183;DHT22;2105;52.300;9.182;2024-03-29T11:02:48;11.40;1.00
4183;DHT22;2105;52.300;9.182;2024-03-29T11:05:16;11.50;99.90
4183;DHT22;2105;52.300;9.182;2024-03-29T11:07:44;11.50;99.90
4183;DHT22;2105;52.300;9.182;2024-03-29T11:10:15;11.40;1.00
4183;DHT22;2105;52.300;9.182;2024-03-29T11:12:50;11.50;99.90
4183;DHT22;2105;52.300;9.182;2024-03-29T11:15:25;11.40;6.60
4183;DHT22;2105;52.300;9.182;2024-03-29T11:17:54;11.40;77.40
4183;DHT22;2105;52.300;9.182;2024-03-29T11:20:23;11.50;99.90
4183;DHT22;2105;52.300;9.182;2024-03-29T11:22:53;11.50;99.90
4183;DHT22;2105;52.300;9.182;2024-03-29T11:25:22;11.50;99.90
4183;DHT22;2105;52.300;9.182;2024-03-29T11:27:48;11.50;38.10
4183;DHT22;2105;52.300;9.182;2024-03-29T11:30:17;11.50;89.20
4183;DHT22;2105;52.300;9.182;2024-03-29T11:32:43;11.60;1.00
4183;DHT22;2105;52.300;9.182;2024-03-29T11:35:14;11.60;1.00
4183;DHT22;2105;52.300;9.182;2024-03-29T11:37:40;11.70;1.00
4183;DHT22;2105;52.300;9.182;2024-03-29T11:40:10;11.70;1.00
4183;DHT22;2105;52.300;9.182;2024-03-29T11:42:44;11.80;1.00
4183;DHT22;2105;52.300;9.182;2024-03-29T11:45:10;11.90;1.00
4183;DHT22;2105;52.300;9.182;2024-03-29T11:47:40;12.00;99.90
4183;DHT22;2105;52.300;9.182;2024-03-29T11:50:08;12.10;99.90
4183;DHT22;2105;52.300;9.182;2024-03-29T11:52:34;12.10;34.20
4183;DHT22;2105;52.300;9.182;2024-03-29T11:55:02;12.20;23.40
4183;DHT22;2105;52.300;9.182;2024-03-29T11:57:29;12.20;55.00
4183;DHT22;2105;52.300;9.182;2024-03-29T11:59:57;12.20;1.00
4183;DHT22;2105;52.300;9.182;2024-03-29T12:02:24;12.30;1.00
4183;DHT22;2105;52.300;9.182;2024-03-29T12:04:50;12.40;1.00
4183;DHT22;2105;52.300;9.182;2024-03-29T12:07:17;12.50;1.00
4183;DHT22;2105;52.300;9.182;2024-03-29T12:09:44;12.60;1.00
4183;DHT22;2105;52.300;9.182;2024-03-29T12:12:11;12.60;1.00
4183;DHT22;2105;52.300;9.182;2024-03-29T12:14:37;12.60;1.00
4183;DHT22;2105;52.300;9.182;2024-03-29T12:17:10;12.60;1.00
4183;DHT22;2105;52.300;9.182;2024-03-29T12:19:37;12.70;1.00
4183;DHT22;2105;52.300;9.182;2024-03-29T12:22:07;12.70;1.00
4183;DHT22;2105;52.300;9.182;2024-03-29T12:24:34;12.80;1.00
4183;DHT22;2105;52.300;9.182;2024-03-29T12:27:01;12.90;1.00
4183;DHT22;2105;52.300;9.182;2024-03-29T12:29:28;12.90;1.00
4183;DHT22;2105;52.300;9.182;2024-03-29T12:31:58;12.90;1.00
4183;DHT22;2105;52.300;9.182;2024-03-29T12:34:26;12.90;1.00
4183;DHT22;2105;52.300;9.182;2024-03-29T12:36:53;13.00;1.00
4183;DHT22;2105;52.300;9.182;2024-03-29T12:39:20;12.90;1.00
4183;DHT22;2105;52.300;9.182;2024-03-29T12:41:47;12.80;1.00
4183;DHT22;2105;52.300;9.182;2024-03-29T12:44:14;12.80;1.00
4183;DHT22;2105;52.300;9.182;2024-03-29T12:46:41;12.80;1.00
4183;DHT22;2105;52.300;9.182;2024-03-29T12:49:10;12.80;1.00
4183;DHT22;2105;52.300;9.182;2024-03-29T12:51:39;12.90;1.00
4183;DHT22;2105;52.300;9.182;2024-03-29T12:54:06;12.90;1.00
4183;DHT22;2105;52.300;9.182;2024-03-29T12:56:33;12.90;1.00
4183;DHT22;2105;52.300;9.182;2024-03-29T12:59:01;13.10;1.00
4183;DHT22;2105;52.300;9.182;2024-03-29T13:01:28;13.60;1.00
4183;DHT22;2105;52.300;9.182;2024-03-29T13:03:55;13.60;99.90
4183;DHT22;2105;52.300;9.182;2024-03-29T13:06:21;13.60;99.90
4183;DHT22;2105;52.300;9.182;2024-03-29T13:11:17;13.80;99.90
4183;DHT22;2105;52.300;9.182;2024-03-29T13:13:44;13.70;99.90
4183;DHT22;2105;52.300;9.182;2024-03-29T13:16:10;13.60;99.90
4183;DHT22;2105;52.300;9.182;2024-03-29T13:18:37;13.40;99.90
4183;DHT22;2105;52.300;9.182;2024-03-29T13:21:04;13.40;1.00
4183;DHT22;2105;52.300;9.182;2024-03-29T13:23:30;13.40;99.90
4183;DHT22;2105;52.300;9.182;2024-03-29T13:25:58;13.30;99.90
4183;DHT22;2105;52.300;9.182;2024-03-29T13:28:26;13.40;1.00
4183;DHT22;2105;52.300;9.182;2024-03-29T13:30:53;13.40;99.90
4183;DHT22;2105;52.300;9.182;2024-03-29T13:33:21;13.50;99.90
4183;DHT22;2105;52.300;9.182;2024-03-29T13:35:52;13.50;99.90
4183;DHT22;2105;52.300;9.182;2024-03-29T13:38:19;13.50;99.90
4183;DHT22;2105;52.300;9.182;2024-03-29T13:40:48;13.40;99.90
4183;DHT22;2105;52.300;9.182;2024-03-29T13:43:15;13.40;99.90
4183;DHT22;2105;52.300;9.182;2024-03-29T13:45:43;13.50;99.90
4183;DHT22;2105;52.300;9.182;2024-03-29T13:48:09;13.60;99.90
4183;DHT22;2105;52.300;9.182;2024-03-29T13:50:36;13.80;99.90
4183;DHT22;2105;52.300;9.182;2024-03-29T13:53:02;13.90;99.90
4183;DHT22;2105;52.300;9.182;2024-03-29T13:55:29;13.80;99.90
4183;DHT22;2105;52.300;9.182;2024-03-29T13:57:56;13.70;99.90
4183;DHT22;2105;52.300;9.182;2024-03-29T14:00:22;13.70;99.90
4183;DHT22;2105;52.300;9.182;2024-03-29T14:02:50;13.80;99.90
4183;DHT22;2105;52.300;9.182;2024-03-29T14:05:18;13.80;99.90
4183;DHT22;2105;52.300;9.182;2024-03-29T14:07:44;13.90;99.90
4183;DHT22;2105;52.300;9.182;2024-03-29T14:10:11;14.00;99.90
4183;DHT22;2105;52.300;9.182;2024-03-29T14:12:38;14.10;99.90
4183;DHT22;2105;52.300;9.182;2024-03-29T14:15:06;14.20;99.90
4183;DHT22;2105;52.300;9.182;2024-03-29T14:17:33;14.40;99.90
4183;DHT22;2105;52.300;9.182;2024-03-29T14:20:01;14.20;99.90
4183;DHT22;2105;52.300;9.182;2024-03-29T14:22:28;14.10;99.90
4183;DHT22;2105;52.300;9.182;2024-03-29T14:24:56;14.20;99.90
4183;DHT22;2105;52.300;9.182;2024-03-29T14:27:23;14.10;99.90
4183;DHT22;2105;52.300;9.182;2024-03-29T14:29:50;14.30;99.90
4183;DHT22;2105;52.300;9.182;2024-03-29T14:32:17;14.20;99.90
4183;DHT22;2105;52.300;9.182;2024-03-29T14:34:43;14.10;99.90
4183;DHT22;2105;52.300;9.182;2024-03-29T14:37:13;14.20;99.90
4183;DHT22;2105;52.300;9.182;2024-03-29T14:39:41;14.40;99.90
4183;DHT22;2105;52.300;9.182;2024-03-29T14:42:07;14.50;99.90
4183;DHT22;2105;52.300;9.182;2024-03-29T14:44:36;14.40;99.90
4183;DHT22;2105;52.300;9.182;2024-03-29T14:47:03;14.60;99.90
4183;DHT22;2105;52.300;9.182;2024-03-29T14:49:31;14.80;99.90
4183;DHT22;2105;52.300;9.182;2024-03-29T14:51:58;15.00;99.90
4183;DHT22;2105;52.300;9.182;2024-03-29T14:54:26;15.10;99.90
4183;DHT22;2105;52.300;9.182;2024-03-29T14:56:52;14.90;99.90
4183;DHT22;2105;52.300;9.182;2024-03-29T14:59:19;14.80;99.90
4183;DHT22;2105;52.300;9.182;2024-03-29T15:01:46;14.80;99.90
4183;DHT22;2105;52.300;9.182;2024-03-29T15:04:13;14.80;99.90
4183;DHT22;2105;52.300;9.182;2024-03-29T15:06:40;14.80;99.90
4183;DHT22;2105;52.300;9.182;2024-03-29T15:09:07;14.80;99.90
4183;DHT22;2105;52.300;9.182;2024-03-29T15:11:36;14.80;99.90
4183;DHT22;2105;52.300;9.182;2024-03-29T15:14:03;14.80;99.90
4183;DHT22;2105;52.300;9.182;2024-03-29T15:16:30;14.90;99.90
4183;DHT22;2105;52.300;9.182;2024-03-29T15:18:57;14.90;99.90
4183;DHT22;2105;52.300;9.182;2024-03-29T15:21:23;14.90;99.90
4183;DHT22;2105;52.300;9.182;2024-03-29T15:23:50;14.70;99.90
4183;DHT22;2105;52.300;9.182;2024-03-29T15:26:17;14.70;99.90
4183;DHT22;2105;52.300;9.182;2024-03-29T15:28:46;14.70;99.90
4183;DHT22;2105;52.300;9.182;2024-03-29T15:31:30;14.60;99.90
4183;DHT22;2105;52.300;9.182;2024-03-29T15:33:57;14.40;99.90
4183;DHT22;2105;52.300;9.182;2024-03-29T15:36:23;14.40;99.90
4183;DHT22;2105;52.300;9.182;2024-03-29T15:38:50;14.20;99.90
4183;DHT22;2105;52.300;9.182;2024-03-29T15:41:19;14.10;99.90
4183;DHT22;2105;52.300;9.182;2024-03-29T15:43:47;14.00;99.90
4183;DHT22;2105;52.300;9.182;2024-03-29T15:46:14;13.90;99.90
4183;DHT22;2105;52.300;9.182;2024-03-29T15:48:41;13.90;99.90
4183;DHT22;2105;52.300;9.182;2024-03-29T15:51:08;13.90;99.90
4183;DHT22;2105;52.300;9.182;2024-03-29T15:53:36;13.90;99.90
4183;DHT22;2105;52.300;9.182;2024-03-29T15:56:02;13.90;99.90
4183;DHT22;2105;52.300;9.182;2024-03-29T15:58:29;13.90;99.90
4183;DHT22;2105;52.300;9.182;2024-03-29T16:00:57;13.80;99.90
4183;DHT22;2105;52.300;9.182;2024-03-29T16:03:24;13.80;99.90
4183;DHT22;2105;52.300;9.182;2024-03-29T16:05:50;13.80;99.90
4183;DHT22;2105;52.300;9.182;2024-03-29T16:08:18;13.80;99.90
4183;DHT22;2105;52.300;9.182;2024-03-29T16:10:52;13.80;99.90
4183;DHT22;2105;52.300;9.182;2024-03-29T16:13:20;13.80;99.90
4183;DHT22;2105;52.300;9.182;2024-03-29T16:15:47;13.80;99.90
4183;DHT22;2105;52.300;9.182;2024-03-29T16:18:14;13.90;99.90
4183;DHT22;2105;52.300;9.182;2024-03-29T16:20:41;13.80;99.90
4183;DHT22;2105;52.300;9.182;2024-03-29T16:23:07;13.80;99.90
4183;DHT22;2105;52.300;9.182;2024-03-29T16:25:34;13.80;99.90